Time;durP1;ratioP1;P1;durP2;ratioP2;P2;SDS_P1;SDS_P2;PMS_P1;PMS_P2;Temp;Humidity;BMP_temperature;BMP_pressure;BME280_temperature;BME280_humidity;BME280_pressure;Samples;Min_cycle;Max_cycle;Signal;HPM_P1;HPM_P2
2023/07/13 00:01:43;;;;;;;14.77;4.07;;;14.80;99.90;;;;;;5073426;28;20428;-24
2023/07/13 00:04:09;;;;;;;18.65;4.53;;;14.90;99.90;;;;;;5074208;28;20181;-24
2023/07/13 00:06:35;;;;;;;14.98;3.63;;;15.00;99.90;;;;;;5074758;28;20094;-24
2023/07/13 00:09:01;;;;;;;13.38;4.47;;;15.00;99.90;;;;;;5074538;28;20040;-24
2023/07/13 00:11:27;;;;;;;12.77;3.65;;;15.10;99.90;;;;;;5073159;28;20056;-24
2023/07/13 00:13:53;;;;;;;18.48;4.40;;;15.10;99.90;;;;;;5072801;28;20141;-24
2023/07/13 00:16:19;;;;;;;17.08;4.43;;;15.20;99.90;;;;;;5074002;28;20126;-24
2023/07/13 00:18:46;;;;;;;15.25;4.03;;;15.20;99.90;;;;;;5072753;28;20060;-24
2023/07/13 00:21:12;;;;;;;15.45;4.32;;;15.20;99.90;;;;;;5056028;28;20449;-24
2023/07/13 00:23:40;;;;;;;18.45;5.47;;;15.20;99.90;;;;;;5073973;28;20051;-24
2023/07/13 00:26:08;;;;;;;16.88;4.38;;;15.20;99.90;;;;;;5081427;28;20116;-24
2023/07/13 00:28:35;;;;;;;19.95;4.20;;;15.20;99.90;;;;;;5092851;28;20561;-24
2023/07/13 00:31:01;;;;;;;18.77;4.78;;;15.20;99.90;;;;;;5094114;28;20044;-24
2023/07/13 00:33:28;;;;;;;16.50;4.15;;;15.20;99.90;;;;;;5094838;28;20083;-24
2023/07/13 00:35:55;;;;;;;14.57;4.50;;;15.20;99.90;;;;;;5093601;28;20398;-24
2023/07/13 00:38:22;;;;;;;20.40;4.50;;;15.10;99.90;;;;;;5076542;28;20407;-24
2023/07/13 00:40:47;;;;;;;18.75;4.03;;;15.00;99.90;;;;;;5093843;28;20120;-24
2023/07/13 00:43:16;;;;;;;17.17;4.10;;;15.00;99.90;;;;;;5092516;28;20140;-24
2023/07/13 00:45:45;;;;;;;16.48;3.97;;;14.90;99.90;;;;;;5093881;28;20067;-24
2023/07/13 00:48:14;;;;;;;15.40;4.70;;;14.90;99.90;;;;;;5094461;28;20062;-24
2023/07/13 00:50:41;;;;;;;13.43;3.80;;;14.80;99.90;;;;;;5093824;28;20040;-23
2023/07/13 00:53:08;;;;;;;17.23;5.22;;;14.80;99.90;;;;;;5093755;28;20040;-24
2023/07/13 00:55:35;;;;;;;14.48;4.35;;;14.80;99.90;;;;;;5094581;28;20134;-23
2023/07/13 00:58:02;;;;;;;22.05;4.50;;;14.80;99.90;;;;;;5093747;28;20048;-24
2023/07/13 01:00:29;;;;;;;17.23;4.90;;;14.80;99.90;;;;;;5092570;28;20040;-23
2023/07/13 01:02:55;;;;;;;22.80;4.78;;;14.80;99.90;;;;;;5093721;28;20048;-23
2023/07/13 01:05:22;;;;;;;14.45;4.40;;;14.70;99.90;;;;;;5092405;28;20576;-24
2023/07/13 01:07:51;;;;;;;20.30;5.05;;;14.70;99.90;;;;;;5093646;28;20063;-23
2023/07/13 01:10:20;;;;;;;17.02;4.00;;;14.70;99.90;;;;;;5092914;28;20087;-24
2023/07/13 01:12:46;;;;;;;19.35;4.43;;;14.80;99.90;;;;;;5089280;28;20090;-23
2023/07/13 01:15:41;;;;;;;18.52;4.40;;;14.80;99.90;;;;;;5077453;28;20076;-23
2023/07/13 01:18:14;;;;;;;12.57;3.53;;;14.80;99.90;;;;;;5081393;28;20126;-23
2023/07/13 01:20:41;;;;;;;16.88;4.20;;;14.80;99.90;;;;;;5069303;28;20134;-23
2023/07/13 01:23:09;;;;;;;25.52;4.25;;;14.80;99.90;;;;;;5089635;28;20048;-24
2023/07/13 01:25:36;;;;;;;15.80;4.00;;;14.90;99.90;;;;;;5084303;28;20084;-23
2023/07/13 01:28:03;;;;;;;11.20;3.55;;;14.90;99.90;;;;;;5081212;28;20568;-23
2023/07/13 01:30:29;;;;;;;12.82;2.80;;;15.00;99.90;;;;;;5097468;28;20513;-23
2023/07/13 01:32:55;;;;;;;11.73;3.00;;;15.00;99.90;;;;;;5096486;28;20048;-23
2023/07/13 01:35:21;;;;;;;13.65;2.60;;;15.00;99.90;;;;;;5097311;28;20501;-23
2023/07/13 01:37:47;;;;;;;11.48;2.35;;;15.00;99.90;;;;;;5080142;28;20046;-23
2023/07/13 01:40:12;;;;;;;14.10;3.17;;;14.90;99.90;;;;;;5096250;28;20079;-23
2023/07/13 01:42:39;;;;;;;12.23;2.95;;;14.90;99.90;;;;;;5093964;28;20113;-23
2023/07/13 01:45:05;;;;;;;9.52;2.35;;;14.80;99.90;;;;;;5095967;28;20480;-23
2023/07/13 01:47:31;;;;;;;10.13;2.70;;;14.80;99.90;;;;;;5097341;28;20473;-23
2023/07/13 01:49:57;;;;;;;7.65;1.88;;;14.90;99.90;;;;;;5085905;28;20034;-23
2023/07/13 01:52:23;;;;;;;10.02;1.70;;;14.90;99.90;;;;;;5083010;28;20451;-23
2023/07/13 01:54:49;;;;;;;7.07;1.65;;;15.00;99.90;;;;;;5077495;28;20132;-23
2023/07/13 01:57:15;;;;;;;5.00;2.05;;;15.10;99.90;;;;;;5080044;28;20044;-23
2023/07/13 01:59:40;;;;;;;7.00;2.25;;;15.20;99.90;;;;;;5084468;28;20040;-23
2023/07/13 02:02:06;;;;;;;5.40;1.17;;;15.30;58.90;;;;;;5096847;28;20052;-23
2023/07/13 02:04:33;;;;;;;5.63;1.10;;;15.40;1.00;;;;;;5096809;28;20502;-23
2023/07/13 02:06:58;;;;;;;5.90;1.58;;;15.40;1.00;;;;;;5095868;28;20080;-23
2023/07/13 02:09:24;;;;;;;4.65;1.00;;;15.50;1.00;;;;;;5094237;28;20094;-23
2023/07/13 02:11:50;;;;;;;6.25;0.80;;;15.50;1.00;;;;;;5095385;28;20451;-23
2023/07/13 02:14:15;;;;;;;5.03;1.05;;;15.50;1.00;;;;;;5078850;28;20056;-23
2023/07/13 02:16:41;;;;;;;3.33;0.95;;;15.50;99.90;;;;;;5075895;28;20406;-23
2023/07/13 02:19:08;;;;;;;4.53;0.95;;;15.50;99.90;;;;;;5083620;28;20044;-23
2023/07/13 02:21:34;;;;;;;4.30;0.70;;;15.50;99.90;;;;;;5091210;28;20055;-23
2023/07/13 02:23:59;;;;;;;5.82;0.90;;;15.50;99.90;;;;;;5095587;28;20036;-23
2023/07/13 02:26:26;;;;;;;5.68;1.40;;;15.40;99.90;;;;;;5095188;28;20063;-23
2023/07/13 02:28:52;;;;;;;5.15;1.25;;;15.30;1.00;;;;;;5094589;28;20044;-23
2023/07/13 02:31:18;;;;;;;2.90;0.68;;;15.30;1.00;;;;;;5093815;28;20501;-23
2023/07/13 02:33:44;;;;;;;5.68;1.10;;;15.30;1.00;;;;;;5095095;28;20052;-23
2023/07/13 02:36:10;;;;;;;3.10;1.05;;;15.20;1.00;;;;;;5076264;28;20050;-23
2023/07/13 02:38:37;;;;;;;6.45;0.88;;;15.20;1.00;;;;;;5075451;28;20068;-22
2023/07/13 02:41:07;;;;;;;5.88;1.48;;;15.10;1.00;;;;;;5087674;28;20032;-23
2023/07/13 02:43:33;;;;;;;5.80;1.27;;;15.00;1.00;;;;;;5095530;28;20052;-23
2023/07/13 02:46:03;;;;;;;4.63;1.17;;;15.00;1.00;;;;;;5066713;28;20047;-23
2023/07/13 02:48:30;;;;;;;6.00;1.25;;;14.90;1.00;;;;;;5076331;28;20049;-24
2023/07/13 02:50:55;;;;;;;5.68;0.93;;;14.90;1.00;;;;;;5074716;28;20506;-23
2023/07/13 02:53:21;;;;;;;6.18;1.25;;;14.90;1.00;;;;;;5075623;28;20083;-23
2023/07/13 02:55:47;;;;;;;2.90;0.70;;;14.80;1.00;;;;;;5075670;28;20048;-23
2023/07/13 02:58:16;;;;;;;3.75;1.10;;;14.70;1.00;;;;;;5068633;28;20494;-23
2023/07/13 03:00:43;;;;;;;4.88;0.85;;;14.60;9.40;;;;;;5094158;28;20482;-23
2023/07/13 03:03:10;;;;;;;5.63;1.10;;;14.60;18.30;;;;;;5096247;28;20048;-23
2023/07/13 03:05:38;;;;;;;6.57;1.10;;;14.50;38.30;;;;;;5096177;28;20079;-23
2023/07/13 03:08:03;;;;;;;5.40;1.23;;;14.40;83.10;;;;;;5095582;28;20044;-23
2023/07/13 03:10:29;;;;;;;5.07;1.35;;;14.30;96.70;;;;;;5095547;28;20052;-23
2023/07/13 03:12:55;;;;;;;5.03;1.30;;;14.30;99.90;;;;;;5096279;28;20431;-23
2023/07/13 03:15:21;;;;;;;5.53;1.25;;;14.20;99.90;;;;;;5094880;28;20075;-23
2023/07/13 03:17:46;;;;;;;9.77;2.40;;;14.20;99.90;;;;;;5077924;28;20046;-23
2023/07/13 03:20:12;;;;;;;9.48;1.80;;;14.20;99.90;;;;;;5077756;28;20131;-23
2023/07/13 03:22:38;;;;;;;8.75;1.98;;;14.10;99.90;;;;;;5094373;28;20138;-23
2023/07/13 03:25:04;;;;;;;8.35;1.98;;;14.10;99.90;;;;;;5095255;28;20089;-23
2023/07/13 03:27:30;;;;;;;8.07;2.25;;;14.20;99.90;;;;;;5095235;28;20044;-23
2023/07/13 03:29:56;;;;;;;8.35;2.17;;;14.20;99.90;;;;;;5093943;28;20047;-23
2023/07/13 03:32:22;;;;;;;6.57;2.10;;;14.30;99.90;;;;;;5094064;28;20127;-23
2023/07/13 03:34:47;;;;;;;9.18;2.95;;;14.30;99.90;;;;;;5081433;28;20103;-23
2023/07/13 03:37:13;;;;;;;9.20;2.88;;;14.40;99.90;;;;;;5073767;28;20048;-23
2023/07/13 03:39:39;;;;;;;11.85;3.03;;;14.40;99.90;;;;;;5081286;28;20047;-23
2023/07/13 03:42:05;;;;;;;19.38;3.60;;;14.40;99.90;;;;;;5088546;28;20065;-23
2023/07/13 03:44:31;;;;;;;10.95;3.55;;;14.40;99.90;;;;;;5086525;28;20134;-23
2023/07/13 03:46:56;;;;;;;13.20;5.05;;;14.40;99.90;;;;;;5085568;28;20040;-23
2023/07/13 03:49:22;;;;;;;14.35;4.57;;;14.30;99.90;;;;;;5093601;28;20040;-23
2023/07/13 03:51:48;;;;;;;15.35;4.47;;;14.30;99.90;;;;;;5086201;28;20055;-23
2023/07/13 03:54:14;;;;;;;14.27;5.10;;;14.30;99.90;;;;;;5075006;28;20055;-23
2023/07/13 03:56:39;;;;;;;19.77;5.47;;;14.20;99.90;;;;;;5077708;28;20155;-23
2023/07/13 03:59:05;;;;;;;18.17;5.97;;;14.20;99.90;;;;;;5074309;28;20045;-23
2023/07/13 04:01:31;;;;;;;15.85;5.55;;;14.20;99.90;;;;;;5085649;28;20042;-23
2023/07/13 04:03:57;;;;;;;15.40;5.22;;;14.20;99.90;;;;;;5074219;28;20051;-23
2023/07/13 04:06:26;;;;;;;24.33;5.97;;;14.20;99.90;;;;;;5081295;28;20040;-23
2023/07/13 04:08:55;;;;;;;21.63;6.97;;;14.20;99.90;;;;;;5095215;28;20054;-23
2023/07/13 04:11:22;;;;;;;21.58;5.88;;;14.20;99.90;;;;;;5094395;28;20397;-23
2023/07/13 04:13:48;;;;;;;12.88;5.88;;;14.10;99.90;;;;;;5093213;28;20048;-23
2023/07/13 04:16:15;;;;;;;18.38;6.40;;;14.20;99.90;;;;;;5094591;28;20047;-23
2023/07/13 04:18:41;;;;;;;21.27;5.78;;;14.20;99.90;;;;;;5085198;28;20091;-23
2023/07/13 04:21:09;;;;;;;19.20;5.68;;;14.20;99.90;;;;;;5074740;28;20080;-23
2023/07/13 04:23:35;;;;;;;21.80;6.43;;;14.30;99.90;;;;;;5074607;28;20075;-23
2023/07/13 04:26:01;;;;;;;25.20;6.18;;;14.30;99.90;;;;;;5072779;28;20048;-23
2023/07/13 04:28:27;;;;;;;16.92;4.93;;;14.30;99.90;;;;;;5073909;28;20540;-23
2023/07/13 04:30:53;;;;;;;20.52;6.00;;;14.30;99.90;;;;;;5073854;28;20049;-23
2023/07/13 04:33:22;;;;;;;13.68;5.55;;;14.40;99.90;;;;;;5056320;28;20087;-23
2023/07/13 04:35:50;;;;;;;22.70;5.97;;;14.40;99.90;;;;;;5073717;28;20044;-23
2023/07/13 04:38:16;;;;;;;18.92;6.05;;;14.50;99.90;;;;;;5073821;28;20091;-23
2023/07/13 04:40:47;;;;;;;21.77;5.40;;;14.60;99.90;;;;;;5074026;28;20083;-23
2023/07/13 04:43:13;;;;;;;20.80;6.03;;;14.60;99.90;;;;;;5074022;28;20053;-23
2023/07/13 04:45:39;;;;;;;17.83;4.97;;;14.70;99.90;;;;;;5072743;28;20051;-23
2023/07/13 04:48:05;;;;;;;13.35;4.75;;;14.80;99.90;;;;;;5073236;28;20190;-23
2023/07/13 04:50:31;;;;;;;17.75;5.07;;;14.90;99.90;;;;;;5073636;28;20121;-23
2023/07/13 04:52:57;;;;;;;20.98;5.72;;;14.90;99.90;;;;;;5074171;28;20079;-23
2023/07/13 04:55:22;;;;;;;19.90;5.53;;;15.10;99.90;;;;;;5073500;28;20045;-23
2023/07/13 04:57:48;;;;;;;15.93;5.15;;;15.10;99.90;;;;;;5078983;28;20460;-24
2023/07/13 05:00:15;;;;;;;18.98;4.40;;;15.10;99.90;;;;;;5093632;28;20040;-23
2023/07/13 05:02:44;;;;;;;14.20;4.10;;;15.10;99.90;;;;;;5093109;28;20127;-23
2023/07/13 05:05:09;;;;;;;16.90;4.35;;;15.20;99.90;;;;;;5094501;28;20044;-23
2023/07/13 05:07:35;;;;;;;16.10;4.45;;;15.30;99.90;;;;;;5093649;28;20493;-23
2023/07/13 05:10:03;;;;;;;18.23;4.20;;;15.40;99.90;;;;;;5093632;28;20048;-23
2023/07/13 05:12:29;;;;;;;19.40;4.95;;;15.50;99.90;;;;;;5093607;28;20078;-23
2023/07/13 05:14:55;;;;;;;20.35;4.93;;;15.50;99.90;;;;;;5092578;28;20052;-23
2023/07/13 05:17:21;;;;;;;13.60;4.47;;;15.70;99.90;;;;;;5093621;28;20050;-23
2023/07/13 05:19:47;;;;;;;17.65;4.63;;;15.90;99.90;;;;;;5093524;28;20079;-23
2023/07/13 05:22:12;;;;;;;14.88;3.88;;;16.00;99.90;;;;;;5092404;28;20079;-23
2023/07/13 05:24:38;;;;;;;15.55;4.65;;;16.20;99.90;;;;;;5092390;28;20503;-23
2023/07/13 05:27:04;;;;;;;10.35;3.35;;;16.40;99.90;;;;;;5092553;28;20059;-23
2023/07/13 05:29:30;;;;;;;12.68;4.07;;;16.60;99.90;;;;;;5093443;28;20489;-23
2023/07/13 05:31:56;;;;;;;12.65;3.50;;;16.90;99.90;;;;;;5092780;28;20047;-23
2023/07/13 05:34:22;;;;;;;11.70;3.60;;;17.10;99.90;;;;;;5093473;28;20079;-23
2023/07/13 05:36:48;;;;;;;14.45;3.97;;;17.40;99.90;;;;;;5093307;28;20501;-23
2023/07/13 05:39:14;;;;;;;9.45;3.35;;;17.60;99.90;;;;;;5092082;28;20063;-23
2023/07/13 05:41:40;;;;;;;14.05;3.75;;;17.90;99.90;;;;;;5075164;28;20052;-23
2023/07/13 05:44:06;;;;;;;12.23;3.47;;;18.50;53.40;;;;;;5093531;28;20056;-23
2023/07/13 05:46:32;;;;;;;20.38;3.28;;;18.80;99.90;;;;;;5093310;28;20427;-23
2023/07/13 05:49:01;;;;;;;14.88;3.28;;;19.00;1.00;;;;;;5092378;28;20051;-23
2023/07/13 05:51:26;;;;;;;11.60;3.80;;;19.10;1.00;;;;;;5094043;28;20122;-23
2023/07/13 05:53:52;;;;;;;12.30;2.38;;;19.40;99.90;;;;;;5093161;28;20371;-23
2023/07/13 05:56:18;;;;;;;9.70;2.78;;;19.50;99.90;;;;;;5075152;28;20044;-23
2023/07/13 05:58:43;;;;;;;12.85;2.92;;;19.50;99.90;;;;;;5071840;28;20041;-23
2023/07/13 06:01:12;;;;;;;8.57;2.67;;;19.70;17.40;;;;;;5074772;28;20044;-23
2023/07/13 06:03:38;;;;;;;8.07;2.42;;;19.80;1.00;;;;;;5076147;28;20427;-23
2023/07/13 06:06:05;;;;;;;12.07;3.00;;;20.20;1.00;;;;;;5077192;28;20124;-23
2023/07/13 06:08:32;;;;;;;13.93;2.90;;;20.40;99.90;;;;;;5076512;28;20049;-23
2023/07/13 06:11:03;;;;;;;12.80;2.63;;;20.50;99.90;;;;;;5076390;28;20545;-23
2023/07/13 06:13:29;;;;;;;14.25;3.35;;;20.40;1.00;;;;;;5076931;28;20095;-23
2023/07/13 06:15:55;;;;;;;9.30;2.20;;;20.40;72.70;;;;;;5076395;28;20079;-23
2023/07/13 06:18:20;;;;;;;12.48;2.88;;;20.50;30.10;;;;;;5076313;28;20508;-23
2023/07/13 06:20:46;;;;;;;11.40;2.50;;;20.80;1.00;;;;;;5075021;28;20045;-23
2023/07/13 06:23:12;;;;;;;8.05;2.30;;;20.80;99.90;;;;;;5076788;28;20127;-24
2023/07/13 06:25:37;;;;;;;10.25;1.85;;;21.00;99.90;;;;;;5058428;28;20505;-23
2023/07/13 06:28:03;;;;;;;8.57;2.05;;;21.10;99.90;;;;;;5076981;28;20123;-23
2023/07/13 06:30:29;;;;;;;6.65;2.00;;;21.20;99.90;;;;;;5076091;28;20052;-23
2023/07/13 06:32:55;;;;;;;10.85;2.20;;;21.10;99.90;;;;;;5057885;28;20056;-23
2023/07/13 06:35:20;;;;;;;9.45;1.92;;;21.00;99.90;;;;;;5058319;28;20131;-23
2023/07/13 06:37:47;;;;;;;10.45;2.30;;;20.70;1.00;;;;;;5075915;28;20478;-23
2023/07/13 06:40:12;;;;;;;9.27;1.60;;;20.60;15.50;;;;;;5076470;28;20555;-23
2023/07/13 06:42:38;;;;;;;6.07;2.30;;;20.90;1.00;;;;;;5076596;28;20052;-23
2023/07/13 06:45:05;;;;;;;9.30;2.05;;;21.00;99.90;;;;;;5079499;28;20067;-23
2023/07/13 06:47:30;;;;;;;8.48;1.92;;;20.60;1.00;;;;;;5077842;28;20064;-23
2023/07/13 06:49:57;;;;;;;8.30;2.00;;;20.50;1.00;;;;;;5075161;28;20133;-24
2023/07/13 06:52:23;;;;;;;11.23;2.10;;;20.40;1.00;;;;;;5074713;28;20091;-24
2023/07/13 06:54:49;;;;;;;8.85;1.60;;;20.90;1.00;;;;;;5075626;28;20080;-23
2023/07/13 06:57:15;;;;;;;10.40;2.03;;;21.20;1.00;;;;;;5075023;28;20049;-23
2023/07/13 06:59:40;;;;;;;7.65;1.80;;;21.30;99.90;;;;;;5075840;28;20445;-23
2023/07/13 07:02:10;;;;;;;6.22;2.13;;;21.50;1.00;;;;;;5095336;28;20048;-24
2023/07/13 07:04:36;;;;;;;3.53;1.10;;;21.00;99.90;;;;;;5095725;28;20052;-24
2023/07/13 07:07:02;;;;;;;7.63;1.48;;;21.20;1.00;;;;;;5095645;28;20135;-23
2023/07/13 07:09:29;;;;;;;7.25;1.35;;;20.50;99.90;;;;;;5095606;28;20044;-24
2023/07/13 07:11:55;;;;;;;6.13;1.33;;;20.00;1.00;;;;;;5078154;28;20055;-24
2023/07/13 07:14:21;;;;;;;6.28;1.40;;;19.40;99.90;;;;;;5093351;28;20051;-23
2023/07/13 07:16:47;;;;;;;6.95;1.50;;;19.30;1.00;;;;;;5095452;28;20044;-24
2023/07/13 07:19:12;;;;;;;5.03;1.35;;;20.10;99.90;;;;;;5095442;28;20528;-23
2023/07/13 07:21:38;;;;;;;9.60;1.30;;;20.90;1.00;;;;;;5095287;28;20075;-24
2023/07/13 07:24:05;;;;;;;4.43;1.50;;;21.00;86.40;;;;;;5094978;28;20048;-24
2023/07/13 07:26:31;;;;;;;4.25;1.60;;;20.90;99.90;;;;;;5087945;28;20045;-23
2023/07/13 07:28:57;;;;;;;5.65;1.30;;;21.60;99.90;;;;;;5074599;28;20048;-24
2023/07/13 07:31:22;;;;;;;6.00;1.60;;;21.80;99.90;;;;;;5075494;28;20379;-24
2023/07/13 07:33:49;;;;;;;4.15;1.10;;;22.00;99.90;;;;;;5075386;28;20043;-24
2023/07/13 07:36:16;;;;;;;5.40;1.52;;;22.20;99.90;;;;;;5074507;28;20052;-23
2023/07/13 07:38:42;;;;;;;5.95;1.33;;;22.60;99.90;;;;;;5076691;28;20115;-24
2023/07/13 07:41:08;;;;;;;6.75;1.88;;;22.20;99.90;;;;;;5074299;28;20363;-24
2023/07/13 07:43:33;;;;;;;5.00;1.73;;;22.00;99.90;;;;;;5073177;28;20059;-24
2023/07/13 07:45:59;;;;;;;9.38;2.10;;;21.40;99.90;;;;;;5077720;28;20047;-23
2023/07/13 07:48:25;;;;;;;7.45;2.08;;;20.80;99.90;;;;;;5071499;28;20126;-24
2023/07/13 07:50:51;;;;;;;5.47;1.23;;;20.10;1.00;;;;;;5074994;28;20115;-24
2023/07/13 07:53:17;;;;;;;4.43;1.20;;;19.50;99.90;;;;;;5074443;28;20048;-24
2023/07/13 07:55:43;;;;;;;4.70;1.38;;;19.20;99.90;;;;;;5073730;28;20044;-23
2023/07/13 07:58:10;;;;;;;5.97;1.20;;;18.90;6.60;;;;;;5085159;28;20047;-23
2023/07/13 08:00:36;;;;;;;6.32;1.20;;;18.60;99.90;;;;;;5074275;28;20040;-24
2023/07/13 08:03:02;;;;;;;2.90;1.05;;;18.40;1.00;;;;;;5087311;28;20051;-24
2023/07/13 08:05:28;;;;;;;3.65;1.40;;;18.30;1.00;;;;;;5089720;28;20048;-24
2023/07/13 08:07:54;;;;;;;4.47;0.90;;;18.30;99.90;;;;;;5084712;28;20379;-23
2023/07/13 08:10:20;;;;;;;4.65;1.02;;;18.70;99.90;;;;;;5074158;28;20051;-24
2023/07/13 08:12:46;;;;;;;8.25;1.45;;;19.00;99.90;;;;;;5081085;28;20052;-24
2023/07/13 08:15:15;;;;;;;6.63;1.30;;;18.90;99.90;;;;;;5094384;28;20079;-24
2023/07/13 08:17:41;;;;;;;8.10;1.33;;;18.70;99.90;;;;;;5094313;28;20123;-24
2023/07/13 08:20:09;;;;;;;3.78;1.35;;;18.40;80.90;;;;;;5093020;28;20083;-24
2023/07/13 08:22:35;;;;;;;9.05;1.60;;;18.20;1.00;;;;;;5092761;28;20100;-23
2023/07/13 08:25:01;;;;;;;6.55;1.52;;;18.00;1.00;;;;;;5086478;28;20044;-23
2023/07/13 08:27:28;;;;;;;6.57;1.63;;;17.80;11.70;;;;;;5074714;28;20051;-23
2023/07/13 08:29:54;;;;;;;4.28;1.15;;;17.70;99.90;;;;;;5073868;28;20131;-23
2023/07/13 08:32:21;;;;;;;4.45;1.50;;;17.60;99.90;;;;;;5073713;28;20137;-24
2023/07/13 08:34:47;;;;;;;6.13;1.55;;;17.60;99.90;;;;;;5074227;28;20049;-23
2023/07/13 08:37:13;;;;;;;5.65;1.50;;;17.50;99.90;;;;;;5074181;28;20039;-23
2023/07/13 08:39:39;;;;;;;7.75;2.22;;;17.50;1.00;;;;;;5091117;28;20048;-22
2023/07/13 08:42:12;;;;;;;7.55;1.40;;;17.60;1.00;;;;;;5064174;28;20058;-23
2023/07/13 08:45:16;;;;;;;6.55;1.40;;;17.80;14.00;;;;;;5094836;28;20043;-24
2023/07/13 08:47:53;;;;;;;7.28;1.48;;;18.20;99.90;;;;;;5075685;28;20048;-24
2023/07/13 08:50:24;;;;;;;5.45;1.63;;;18.60;1.00;;;;;;5076961;28;20112;-24
2023/07/13 08:52:54;;;;;;;8.50;2.45;;;18.70;1.00;;;;;;5083510;28;20049;-23
2023/07/13 08:55:33;;;;;;;4.45;1.65;;;18.80;1.00;;;;;;5050865;28;20433;-23
2023/07/13 08:58:13;;;;;;;11.80;2.70;;;19.10;1.00;;;;;;5103168;28;20528;-24
2023/07/13 09:00:50;;;;;;;4.18;1.88;;;19.30;1.00;;;;;;5106949;28;20051;-24
2023/07/13 09:03:22;;;;;;;6.40;1.58;;;19.50;1.00;;;;;;5062706;28;20056;-24
2023/07/13 09:05:54;;;;;;;6.40;1.83;;;19.60;1.00;;;;;;5106137;28;20058;-23
2023/07/13 09:08:52;;;;;;;8.27;1.65;;;19.90;99.90;;;;;;5098506;28;20035;-24
2023/07/13 09:11:33;;;;;;;6.28;1.92;;;21.10;99.90;;;;;;5105792;28;20040;-24
2023/07/13 09:14:17;;;;;;;7.93;1.60;;;22.20;99.90;;;;;;5095145;28;20048;-24
2023/07/13 09:16:44;;;;;;;3.75;1.40;;;22.40;1.00;;;;;;5105918;28;20051;-24
2023/07/13 09:19:19;;;;;;;7.05;1.80;;;22.90;1.00;;;;;;5105114;28;20047;-24
2023/07/13 09:21:45;;;;;;;5.82;1.50;;;23.50;99.90;;;;;;5097297;28;20072;-25
2023/07/13 09:24:35;;;;;;;7.25;1.80;;;23.70;99.90;;;;;;5091405;28;20090;-24
2023/07/13 09:27:08;;;;;;;6.78;1.70;;;23.80;99.90;;;;;;5084325;28;20045;-24
2023/07/13 09:29:37;;;;;;;4.10;1.40;;;24.20;1.00;;;;;;5085248;28;20397;-24
2023/07/13 09:32:07;;;;;;;6.03;1.25;;;24.30;99.90;;;;;;5092480;28;20088;-24
2023/07/13 09:34:34;;;;;;;8.50;1.80;;;23.60;99.90;;;;;;5082506;28;20453;-24
2023/07/13 09:36:59;;;;;;;5.47;1.30;;;23.70;99.90;;;;;;5090737;28;20535;-24
2023/07/13 09:39:29;;;;;;;3.15;0.88;;;23.30;99.90;;;;;;5085856;28;20051;-24
2023/07/13 09:42:15;;;;;;;3.83;1.20;;;22.10;65.70;;;;;;5091676;28;20048;-23
2023/07/13 09:44:48;;;;;;;5.18;1.77;;;21.20;64.20;;;;;;5095342;28;20052;-24
2023/07/13 09:47:23;;;;;;;1.20;0.57;;;20.80;16.40;;;;;;5096281;28;20052;-24
2023/07/13 09:49:58;;;;;;;2.95;0.68;;;20.30;99.90;;;;;;5097164;28;20085;-24
2023/07/13 09:52:25;;;;;;;1.70;0.57;;;20.20;99.90;;;;;;5090105;28;20045;-24
2023/07/13 09:54:58;;;;;;;2.90;0.93;;;20.80;99.90;;;;;;5091295;28;20505;-24
2023/07/13 09:57:25;;;;;;;;;;;21.50;1.00;;;;;;5090104;28;20484;-24
2023/07/13 09:59:53;;;;;;;2.55;0.65;;;22.20;1.00;;;;;;5090304;28;20004;-25
2023/07/13 10:02:36;;;;;;;2.83;0.95;;;22.60;99.90;;;;;;5088106;28;20049;-24
2023/07/13 10:05:15;;;;;;;1.90;0.65;;;22.00;1.00;;;;;;5076138;28;20048;-24
2023/07/13 10:07:44;;;;;;;3.25;0.80;;;21.00;56.90;;;;;;5076776;28;20516;-24
2023/07/13 10:10:28;;;;;;;4.70;0.60;;;21.00;99.90;;;;;;5076686;28;20049;-24
2023/07/13 10:12:53;;;;;;;5.93;1.00;;;22.00;1.00;;;;;;5065964;28;20123;-24
2023/07/13 10:15:25;;;;;;;7.47;0.93;;;21.80;99.90;;;;;;5096902;28;20547;-24
2023/07/13 10:17:58;;;;;;;2.53;0.82;;;21.40;99.90;;;;;;5096725;28;20048;-24
2023/07/13 10:20:26;;;;;;;1.65;0.40;;;21.90;99.90;;;;;;5096542;28;20397;-24
2023/07/13 10:23:04;;;;;;;3.63;0.68;;;22.50;1.00;;;;;;5092189;28;20080;-23
2023/07/13 10:25:38;;;;;;;2.05;0.32;;;22.50;1.00;;;;;;5076197;28;20123;-24
2023/07/13 10:28:25;;;;;;;2.65;0.50;;;22.80;1.00;;;;;;5076170;28;20082;-24
2023/07/13 10:30:54;;;;;;;2.78;1.13;;;22.90;77.00;;;;;;5068694;28;20406;-25
2023/07/13 10:33:22;;;;;;;2.15;0.45;;;22.20;1.00;;;;;;5077115;28;20044;-23
2023/07/13 10:35:54;;;;;;;2.08;0.40;;;21.80;1.00;;;;;;5096170;28;20055;-24
2023/07/13 10:38:25;;;;;;;1.47;0.37;;;21.80;1.00;;;;;;5095574;28;20055;-24
2023/07/13 10:40:53;;;;;;;2.60;0.50;;;21.50;1.00;;;;;;5094650;28;20492;-24
2023/07/13 10:43:24;;;;;;;1.08;0.30;;;21.70;1.00;;;;;;5093620;28;20117;-24
2023/07/13 10:45:51;;;;;;;3.08;0.90;;;22.00;1.00;;;;;;5083738;28;20058;-24
2023/07/13 10:48:18;;;;;;;2.65;0.38;;;22.00;1.00;;;;;;5094913;28;20441;-24
2023/07/13 10:50:46;;;;;;;1.80;0.25;;;21.70;1.00;;;;;;5078684;28;20041;-25
2023/07/13 10:53:20;;;;;;;3.05;0.60;;;21.30;1.00;;;;;;5075865;28;20448;-24
2023/07/13 10:55:52;;;;;;;1.45;0.43;;;21.90;99.90;;;;;;5088543;28;20058;-24
2023/07/13 10:58:37;;;;;;;1.90;0.60;;;21.40;99.90;;;;;;5095987;28;20051;-24
2023/07/13 11:01:07;;;;;;;5.40;1.30;;;20.70;99.90;;;;;;5096114;28;20039;-23
2023/07/13 11:03:36;;;;;;;1.83;0.63;;;20.20;99.90;;;;;;5075109;28;20463;-24
2023/07/13 11:06:08;;;;;;;6.05;0.90;;;20.50;99.90;;;;;;5076260;28;20059;-24
2023/07/13 11:08:52;;;;;;;3.05;1.45;;;21.20;99.90;;;;;;5075968;28;20474;-24
2023/07/13 11:11:25;;;;;;;5.30;0.82;;;22.00;99.90;;;;;;5082976;28;20048;-23
2023/07/13 11:13:50;;;;;;;3.83;0.77;;;22.60;99.90;;;;;;5075028;28;20040;-24
2023/07/13 11:16:22;;;;;;;3.35;0.77;;;23.00;42.50;;;;;;5080499;28;20047;-23
2023/07/13 11:18:49;;;;;;;1.65;0.60;;;23.20;1.00;;;;;;5082601;28;20051;-24
2023/07/13 11:21:17;;;;;;;2.67;0.73;;;23.00;1.00;;;;;;5090061;28;20082;-25
2023/07/13 11:23:44;;;;;;;2.63;0.95;;;22.80;1.00;;;;;;5092337;28;20044;-24
2023/07/13 11:26:47;;;;;;;2.92;0.90;;;22.40;1.00;;;;;;5097763;28;20096;-24
2023/07/13 11:29:36;;;;;;;4.22;0.45;;;22.30;99.90;;;;;;5104431;28;20074;-25
2023/07/13 11:32:26;;;;;;;5.25;0.90;;;22.50;1.00;;;;;;5090164;28;20131;-24
2023/07/13 11:34:55;;;;;;;4.97;0.88;;;23.00;1.00;;;;;;5103581;28;20040;-24
2023/07/13 11:37:23;;;;;;;3.50;0.80;;;22.70;1.00;;;;;;5099295;28;20498;-24
2023/07/13 11:39:51;;;;;;;7.47;1.05;;;22.40;1.00;;;;;;5111046;28;20412;-24
2023/07/13 11:42:18;;;;;;;2.65;0.80;;;22.60;1.00;;;;;;5095795;28;20124;-24
2023/07/13 11:44:48;;;;;;;3.70;0.88;;;22.50;99.90;;;;;;5097769;28;20101;-24
2023/07/13 11:47:25;;;;;;;4.85;1.17;;;22.10;99.90;;;;;;5086351;28;20094;-24
2023/07/13 11:49:59;;;;;;;2.97;0.80;;;22.30;1.00;;;;;;5095926;28;20044;-24
2023/07/13 11:52:37;;;;;;;3.80;1.17;;;22.80;1.00;;;;;;5090743;28;20040;-24
2023/07/13 11:55:19;;;;;;;3.15;0.88;;;23.00;99.90;;;;;;5107653;28;20055;-24
2023/07/13 11:57:57;;;;;;;8.10;0.75;;;23.10;99.90;;;;;;5089436;27;20044;-24
2023/07/13 12:00:27;;;;;;;5.60;0.73;;;22.70;99.90;;;;;;5106636;28;20079;-24
2023/07/13 12:02:58;;;;;;;2.78;0.98;;;22.70;99.90;;;;;;5102718;28;20486;-24
2023/07/13 12:05:24;;;;;;;3.65;1.00;;;22.70;99.90;;;;;;5110905;28;20092;-24
2023/07/13 12:07:51;;;;;;;2.85;0.88;;;22.80;99.90;;;;;;5094683;28;20047;-24
2023/07/13 12:10:28;;;;;;;5.43;1.38;;;22.80;99.90;;;;;;5107791;28;20117;-26
2023/07/13 12:13:02;;;;;;;3.90;1.20;;;23.20;99.90;;;;;;5106826;28;20057;-24
2023/07/13 12:15:44;;;;;;;4.25;0.88;;;23.20;1.00;;;;;;5096824;28;20122;-24
2023/07/13 12:18:14;;;;;;;7.82;1.10;;;22.10;99.90;;;;;;5086788;28;20040;-23
2023/07/13 12:20:40;;;;;;;2.47;0.70;;;21.50;99.90;;;;;;5073307;28;20462;-23
2023/07/13 12:23:19;;;;;;;2.05;0.63;;;21.30;1.00;;;;;;5073765;28;20106;-23
2023/07/13 12:25:45;;;;;;;17.92;1.95;;;21.20;1.00;;;;;;5074579;28;20044;-23
2023/07/13 12:28:22;;;;;;;6.72;0.93;;;20.70;99.90;;;;;;5073323;28;20083;-23
2023/07/13 12:30:49;;;;;;;1.05;0.47;;;19.70;99.90;;;;;;5074901;28;20407;-23
2023/07/13 12:33:16;;;;;;;5.15;0.90;;;19.50;99.90;;;;;;5078471;28;20495;-23
2023/07/13 12:35:55;;;;;;;5.32;0.80;;;19.50;99.90;;;;;;5071656;28;20481;-23
2023/07/13 12:38:24;;;;;;;3.88;0.88;;;19.30;99.90;;;;;;5073549;28;20064;-23
2023/07/13 12:40:51;;;;;;;3.75;0.60;;;19.60;99.90;;;;;;5073769;28;20048;-23
2023/07/13 12:43:19;;;;;;;3.40;0.80;;;20.70;99.90;;;;;;5073760;28;20486;-23
2023/07/13 12:46:15;;;;;;;3.20;0.95;;;21.80;1.00;;;;;;5073018;28;20045;-23
2023/07/13 12:48:42;;;;;;;4.53;1.33;;;21.30;1.00;;;;;;5072586;28;20048;-23
2023/07/13 12:51:12;;;;;;;7.95;1.65;;;20.90;99.90;;;;;;5074488;28;20040;-23
2023/07/13 12:53:48;;;;;;;4.22;1.15;;;20.80;99.90;;;;;;5073686;28;20053;-23